sensor_id;sensor_type;location;lat;lon;timestamp;P1;durP1;ratioP1;P2;durP2;ratioP2
12842;SDS011;35724;49.324;-123.118;2023-01-23T00:07:50;0.80;;;0.80;;
12842;SDS011;35724;49.324;-123.118;2023-01-23T00:17:57;0.93;;;0.82;;
12842;SDS011;35724;49.324;-123.118;2023-01-23T00:28:05;1.73;;;0.95;;
12842;SDS011;35724;49.324;-123.118;2023-01-23T00:38:13;1.35;;;0.98;;
12842;SDS011;35724;49.324;-123.118;2023-01-23T00:48:22;1.23;;;1.00;;
12842;SDS011;35724;49.324;-123.118;2023-01-23T00:58:30;1.08;;;0.98;;
12842;SDS011;35724;49.324;-123.118;2023-01-23T01:08:39;1.45;;;0.95;;
12842;SDS011;35724;49.324;-123.118;2023-01-23T01:18:46;1.17;;;0.95;;
12842;SDS011;35724;49.324;-123.118;2023-01-23T01:28:55;0.80;;;0.80;;
12842;SDS011;35724;49.324;-123.118;2023-01-23T01:39:02;2.03;;;1.10;;
12842;SDS011;35724;49.324;-123.118;2023-01-23T01:49:13;1.23;;;1.13;;
12842;SDS011;35724;49.324;-123.118;2023-01-23T01:59:23;1.27;;;1.13;;
12842;SDS011;35724;49.324;-123.118;2023-01-23T02:09:33;1.05;;;0.95;;
12842;SDS011;35724;49.324;-123.118;2023-01-23T02:19:43;1.27;;;1.00;;
12842;SDS011;35724;49.324;-123.118;2023-01-23T02:30:06;1.25;;;1.10;;
12842;SDS011;35724;49.324;-123.118;2023-01-23T02:40:16;1.33;;;1.20;;
12842;SDS011;35724;49.324;-123.118;2023-01-23T02:50:27;1.70;;;1.40;;
12842;SDS011;35724;49.324;-123.118;2023-01-23T03:00:34;1.73;;;1.40;;
12842;SDS011;35724;49.324;-123.118;2023-01-23T03:10:42;1.70;;;1.60;;
12842;SDS011;35724;49.324;-123.118;2023-01-23T03:20:51;1.55;;;1.45;;
12842;SDS011;35724;49.324;-123.118;2023-01-23T03:31:00;2.92;;;1.50;;
12842;SDS011;35724;49.324;-123.118;2023-01-23T03:41:11;2.15;;;1.35;;
12842;SDS011;35724;49.324;-123.118;2023-01-23T03:51:40;3.35;;;1.40;;
12842;SDS011;35724;49.324;-123.118;2023-01-23T04:01:47;1.45;;;1.35;;
12842;SDS011;35724;49.324;-123.118;2023-01-23T04:11:57;2.88;;;1.17;;
12842;SDS011;35724;49.324;-123.118;2023-01-23T04:22:07;1.30;;;1.02;;
12842;SDS011;35724;49.324;-123.118;2023-01-23T04:32:24;1.20;;;1.10;;
12842;SDS011;35724;49.324;-123.118;2023-01-23T04:42:31;1.83;;;1.33;;
12842;SDS011;35724;49.324;-123.118;2023-01-23T04:52:45;1.33;;;1.23;;
12842;SDS011;35724;49.324;-123.118;2023-01-23T05:02:53;1.90;;;1.80;;
12842;SDS011;35724;49.324;-123.118;2023-01-23T05:13:01;3.50;;;1.95;;
12842;SDS011;35724;49.324;-123.118;2023-01-23T05:23:09;1.70;;;1.60;;
12842;SDS011;35724;49.324;-123.118;2023-01-23T05:33:26;4.03;;;1.70;;
12842;SDS011;35724;49.324;-123.118;2023-01-23T05:43:34;1.70;;;1.60;;
12842;SDS011;35724;49.324;-123.118;2023-01-23T05:54:15;3.15;;;1.50;;
12842;SDS011;35724;49.324;-123.118;2023-01-23T06:04:22;1.77;;;1.30;;
12842;SDS011;35724;49.324;-123.118;2023-01-23T06:14:58;1.08;;;1.00;;
12842;SDS011;35724;49.324;-123.118;2023-01-23T06:25:06;1.30;;;1.20;;
12842;SDS011;35724;49.324;-123.118;2023-01-23T06:35:14;2.30;;;1.20;;
12842;SDS011;35724;49.324;-123.118;2023-01-23T06:45:23;1.67;;;1.27;;
12842;SDS011;35724;49.324;-123.118;2023-01-23T06:55:32;1.75;;;1.23;;
12842;SDS011;35724;49.324;-123.118;2023-01-23T07:05:39;1.20;;;1.10;;
12842;SDS011;35724;49.324;-123.118;2023-01-23T07:15:47;1.38;;;1.00;;
12842;SDS011;35724;49.324;-123.118;2023-01-23T07:25:57;1.20;;;1.10;;
12842;SDS011;35724;49.324;-123.118;2023-01-23T07:36:06;1.27;;;1.00;;
12842;SDS011;35724;49.324;-123.118;2023-01-23T07:46:16;0.90;;;0.90;;
12842;SDS011;35724;49.324;-123.118;2023-01-23T07:56:25;0.88;;;0.80;;
12842;SDS011;35724;49.324;-123.118;2023-01-23T08:06:35;0.80;;;0.80;;
12842;SDS011;35724;49.324;-123.118;2023-01-23T08:16:49;0.70;;;0.70;;
12842;SDS011;35724;49.324;-123.118;2023-01-23T08:26:55;0.80;;;0.80;;
12842;SDS011;35724;49.324;-123.118;2023-01-23T08:37:04;0.70;;;0.70;;
12842;SDS011;35724;49.324;-123.118;2023-01-23T08:47:11;0.60;;;0.60;;
12842;SDS011;35724;49.324;-123.118;2023-01-23T08:57:20;0.80;;;0.80;;
12842;SDS011;35724;49.324;-123.118;2023-01-23T09:07:27;0.70;;;0.70;;
12842;SDS011;35724;49.324;-123.118;2023-01-23T09:17:35;0.50;;;0.50;;
12842;SDS011;35724;49.324;-123.118;2023-01-23T09:27:43;0.60;;;0.60;;
12842;SDS011;35724;49.324;-123.118;2023-01-23T09:37:51;0.60;;;0.60;;
12842;SDS011;35724;49.324;-123.118;2023-01-23T09:48:08;0.70;;;0.70;;
12842;SDS011;35724;49.324;-123.118;2023-01-23T09:58:26;0.63;;;0.60;;
12842;SDS011;35724;49.324;-123.118;2023-01-23T10:08:41;0.60;;;0.60;;
12842;SDS011;35724;49.324;-123.118;2023-01-23T10:19:01;0.60;;;0.60;;
12842;SDS011;35724;49.324;-123.118;2023-01-23T10:29:20;0.88;;;0.65;;
12842;SDS011;35724;49.324;-123.118;2023-01-23T10:39:43;0.60;;;0.60;;
12842;SDS011;35724;49.324;-123.118;2023-01-23T10:49:55;0.60;;;0.60;;
12842;SDS011;35724;49.324;-123.118;2023-01-23T11:00:05;0.70;;;0.70;;
12842;SDS011;35724;49.324;-123.118;2023-01-23T11:10:24;0.63;;;0.52;;
12842;SDS011;35724;49.324;-123.118;2023-01-23T11:20:34;0.50;;;0.50;;
12842;SDS011;35724;49.324;-123.118;2023-01-23T11:30:42;0.63;;;0.60;;
12842;SDS011;35724;49.324;-123.118;2023-01-23T11:40:59;0.55;;;0.55;;
12842;SDS011;35724;49.324;-123.118;2023-01-23T11:51:08;0.50;;;0.50;;
12842;SDS011;35724;49.324;-123.118;2023-01-23T12:01:22;0.60;;;0.60;;
12842;SDS011;35724;49.324;-123.118;2023-01-23T12:11:36;0.43;;;0.43;;
12842;SDS011;35724;49.324;-123.118;2023-01-23T12:21:53;0.80;;;0.50;;
12842;SDS011;35724;49.324;-123.118;2023-01-23T12:32:12;0.63;;;0.60;;
12842;SDS011;35724;49.324;-123.118;2023-01-23T12:42:35;0.40;;;0.40;;
12842;SDS011;35724;49.324;-123.118;2023-01-23T12:52:50;0.50;;;0.50;;
12842;SDS011;35724;49.324;-123.118;2023-01-23T13:03:11;0.50;;;0.50;;
12842;SDS011;35724;49.324;-123.118;2023-01-23T13:13:28;0.55;;;0.50;;
12842;SDS011;35724;49.324;-123.118;2023-01-23T13:23:38;0.50;;;0.50;;
12842;SDS011;35724;49.324;-123.118;2023-01-23T13:33:47;0.50;;;0.50;;
12842;SDS011;35724;49.324;-123.118;2023-01-23T13:44:13;0.50;;;0.50;;
12842;SDS011;35724;49.324;-123.118;2023-01-23T13:54:27;0.40;;;0.40;;
12842;SDS011;35724;49.324;-123.118;2023-01-23T14:05:13;0.40;;;0.40;;
12842;SDS011;35724;49.324;-123.118;2023-01-23T14:15:39;0.50;;;0.50;;
12842;SDS011;35724;49.324;-123.118;2023-01-23T14:26:23;0.65;;;0.55;;
12842;SDS011;35724;49.324;-123.118;2023-01-23T14:36:31;0.52;;;0.52;;
12842;SDS011;35724;49.324;-123.118;2023-01-23T14:46:44;0.60;;;0.60;;
12842;SDS011;35724;49.324;-123.118;2023-01-23T14:56:54;0.65;;;0.65;;
12842;SDS011;35724;49.324;-123.118;2023-01-23T15:07:11;0.50;;;0.50;;
12842;SDS011;35724;49.324;-123.118;2023-01-23T15:17:22;0.50;;;0.50;;
12842;SDS011;35724;49.324;-123.118;2023-01-23T15:27:32;0.50;;;0.50;;
12842;SDS011;35724;49.324;-123.118;2023-01-23T15:37:44;0.73;;;0.73;;
12842;SDS011;35724;49.324;-123.118;2023-01-23T15:47:53;1.70;;;0.93;;
12842;SDS011;35724;49.324;-123.118;2023-01-23T15:58:00;1.00;;;0.90;;
12842;SDS011;35724;49.324;-123.118;2023-01-23T16:08:13;0.82;;;0.80;;
12842;SDS011;35724;49.324;-123.118;2023-01-23T16:18:25;3.55;;;0.90;;
12842;SDS011;35724;49.324;-123.118;2023-01-23T16:28:35;1.95;;;0.70;;
12842;SDS011;35724;49.324;-123.118;2023-01-23T16:38:42;0.98;;;0.68;;
12842;SDS011;35724;49.324;-123.118;2023-01-23T16:48:57;1.48;;;0.88;;
12842;SDS011;35724;49.324;-123.118;2023-01-23T16:59:04;1.80;;;0.93;;
12842;SDS011;35724;49.324;-123.118;2023-01-23T17:09:14;1.67;;;0.90;;
12842;SDS011;35724;49.324;-123.118;2023-01-23T17:19:22;1.65;;;1.00;;
12842;SDS011;35724;49.324;-123.118;2023-01-23T17:29:34;0.85;;;0.80;;
12842;SDS011;35724;49.324;-123.118;2023-01-23T17:39:41;2.13;;;1.92;;
12842;SDS011;35724;49.324;-123.118;2023-01-23T17:49:50;2.10;;;1.60;;
12842;SDS011;35724;49.324;-123.118;2023-01-23T17:59:58;1.27;;;1.17;;
12842;SDS011;35724;49.324;-123.118;2023-01-23T18:10:13;1.17;;;1.08;;
12842;SDS011;35724;49.324;-123.118;2023-01-23T18:20:21;0.80;;;0.80;;
12842;SDS011;35724;49.324;-123.118;2023-01-23T18:30:35;1.00;;;0.90;;
12842;SDS011;35724;49.324;-123.118;2023-01-23T18:40:49;1.15;;;0.90;;
12842;SDS011;35724;49.324;-123.118;2023-01-23T18:51:16;0.80;;;0.80;;
12842;SDS011;35724;49.324;-123.118;2023-01-23T19:01:34;0.73;;;0.70;;
12842;SDS011;35724;49.324;-123.118;2023-01-23T19:11:54;0.88;;;0.80;;
12842;SDS011;35724;49.324;-123.118;2023-01-23T19:22:11;0.80;;;0.80;;
12842;SDS011;35724;49.324;-123.118;2023-01-23T19:32:21;0.90;;;0.80;;
12842;SDS011;35724;49.324;-123.118;2023-01-23T19:42:28;1.17;;;0.80;;
12842;SDS011;35724;49.324;-123.118;2023-01-23T19:52:53;0.77;;;0.70;;
12842;SDS011;35724;49.324;-123.118;2023-01-23T20:03:01;1.00;;;0.80;;
12842;SDS011;35724;49.324;-123.118;2023-01-23T20:13:10;1.85;;;0.80;;
12842;SDS011;35724;49.324;-123.118;2023-01-23T20:23:17;1.83;;;0.95;;
12842;SDS011;35724;49.324;-123.118;2023-01-23T20:33:25;0.70;;;0.70;;
12842;SDS011;35724;49.324;-123.118;2023-01-23T20:43:32;0.70;;;0.70;;
12842;SDS011;35724;49.324;-123.118;2023-01-23T20:53:42;1.85;;;0.93;;
12842;SDS011;35724;49.324;-123.118;2023-01-23T21:03:49;1.30;;;0.93;;
12842;SDS011;35724;49.324;-123.118;2023-01-23T21:13:58;1.27;;;0.90;;
12842;SDS011;35724;49.324;-123.118;2023-01-23T21:24:05;2.08;;;1.00;;
12842;SDS011;35724;49.324;-123.118;2023-01-23T21:34:14;0.90;;;0.90;;
12842;SDS011;35724;49.324;-123.118;2023-01-23T21:44:21;1.20;;;0.82;;
12842;SDS011;35724;49.324;-123.118;2023-01-23T21:54:30;0.98;;;0.88;;
12842;SDS011;35724;49.324;-123.118;2023-01-23T22:04:37;1.02;;;0.93;;
12842;SDS011;35724;49.324;-123.118;2023-01-23T22:14:46;1.55;;;0.90;;
12842;SDS011;35724;49.324;-123.118;2023-01-23T22:24:52;0.90;;;0.90;;
12842;SDS011;35724;49.324;-123.118;2023-01-23T22:35:01;1.27;;;0.90;;
12842;SDS011;35724;49.324;-123.118;2023-01-23T22:45:08;0.90;;;0.90;;
12842;SDS011;35724;49.324;-123.118;2023-01-23T22:55:17;0.95;;;0.93;;
12842;SDS011;35724;49.324;-123.118;2023-01-23T23:05:25;3.05;;;1.00;;
12842;SDS011;35724;49.324;-123.118;2023-01-23T23:15:35;3.20;;;1.20;;
12842;SDS011;35724;49.324;-123.118;2023-01-23T23:25:42;3.05;;;1.20;;
12842;SDS011;35724;49.324;-123.118;2023-01-23T23:35:50;2.38;;;1.10;;
12842;SDS011;35724;49.324;-123.118;2023-01-23T23:45:58;4.78;;;1.55;;
12842;SDS011;35724;49.324;-123.118;2023-01-23T23:56:11;2.72;;;1.30;;
